createdAt,value
2022-11-05T00:00:55.148Z,43.53
2022-11-05T00:02:46.324Z,49.30
2022-11-05T00:04:37.674Z,47.10
2022-11-05T00:06:29.401Z,46.67
2022-11-05T00:08:23.986Z,49.77
2022-11-05T00:10:06.174Z,50.53
2022-11-05T00:11:57.226Z,48.37
2022-11-05T00:13:48.536Z,47.43
2022-11-05T00:15:39.397Z,48.57
2022-11-05T00:17:11.693Z,47.43
2022-11-05T00:18:44.325Z,49.17
2022-11-05T00:20:16.667Z,48.60
2022-11-05T00:22:07.393Z,47.90
2022-11-05T00:26:13.296Z,49.87
2022-11-05T00:27:49.940Z,47.67
2022-11-05T00:29:22.215Z,42.83
2022-11-05T00:31:01.275Z,42.93
2022-11-05T00:32:33.957Z,47.97
2022-11-05T00:34:08.157Z,44.07
2022-11-05T00:35:40.789Z,48.10
2022-11-05T00:37:13.034Z,46.30
2022-11-05T00:38:45.272Z,47.93
2022-11-05T00:40:18.350Z,49.80
2022-11-05T00:42:10.663Z,47.17
2022-11-05T00:44:01.540Z,44.07
2022-11-05T00:45:34.232Z,43.20
2022-11-05T00:47:25.092Z,45.53
2022-11-05T00:49:16.162Z,45.97
2022-11-05T00:50:48.710Z,46.70
2022-11-05T00:52:39.804Z,45.90
2022-11-05T00:54:12.096Z,52.27
2022-11-05T00:55:46.420Z,46.87
2022-11-05T00:57:18.770Z,47.67
2022-11-05T00:58:51.108Z,47.67
2022-11-05T01:00:28.907Z,46.93
2022-11-05T01:02:01.642Z,50.87
2022-11-05T01:03:38.021Z,45.40
2022-11-05T01:05:10.608Z,46.40
2022-11-05T01:06:43.204Z,49.07
2022-11-05T01:08:19.629Z,44.07
2022-11-05T01:09:51.879Z,49.93
2022-11-05T01:11:33.768Z,43.50
2022-11-05T01:13:10.181Z,45.03
2022-11-05T01:14:45.400Z,43.20
2022-11-05T01:16:18.077Z,41.37
2022-11-05T01:17:52.538Z,42.67
2022-11-05T01:19:24.891Z,49.80
2022-11-05T01:20:57.461Z,55.10
2022-11-05T01:22:29.755Z,45.03
2022-11-05T01:24:02.696Z,42.60
2022-11-05T01:25:35.569Z,43.13
2022-11-05T01:27:08.345Z,45.13
2022-11-05T01:28:40.890Z,44.67
2022-11-05T01:30:14.215Z,45.37
2022-11-05T01:31:46.971Z,45.70
2022-11-05T01:33:19.286Z,54.07
2022-11-05T01:34:51.561Z,43.27
2022-11-05T01:36:24.145Z,49.67
2022-11-05T01:37:56.434Z,43.67
2022-11-05T01:39:28.745Z,50.43
2022-11-05T01:41:01.549Z,47.20
2022-11-05T01:42:34.745Z,49.07
2022-11-05T01:44:47.924Z,48.47
2022-11-05T01:46:44.344Z,41.40
2022-11-05T01:48:28.900Z,48.40
2022-11-05T01:50:27.137Z,60.37
2022-11-05T01:52:04.206Z,50.20
2022-11-05T01:53:44.975Z,51.77
2022-11-05T01:55:26.028Z,47.97
2022-11-05T01:57:09.171Z,47.30
2022-11-05T01:59:09.610Z,44.53
2022-11-05T02:00:43.253Z,48.30
2022-11-05T02:02:17.787Z,44.00
2022-11-05T02:03:55.310Z,40.40
2022-11-05T02:05:28.691Z,41.80
2022-11-05T02:07:02.497Z,48.53
2022-11-05T02:09:03.719Z,43.57
2022-11-05T02:10:36.719Z,46.10
2022-11-05T02:12:10.935Z,44.00
2022-11-05T02:13:43.600Z,46.73
2022-11-05T02:15:46.801Z,41.97
2022-11-05T02:17:55.443Z,47.23
2022-11-05T02:19:49.634Z,44.53
2022-11-05T02:21:50.173Z,48.47
2022-11-05T02:24:14.262Z,45.43
2022-11-05T02:26:26.656Z,45.90
2022-11-05T02:28:58.874Z,45.30
2022-11-05T02:30:52.485Z,45.27
2022-11-05T02:32:41.847Z,45.93
2022-11-05T02:34:48.403Z,46.03
2022-11-05T02:37:26.208Z,48.23
2022-11-05T02:39:40.762Z,46.90
2022-11-05T02:41:44.805Z,46.30
2022-11-05T02:43:51.119Z,43.67
2022-11-05T02:45:43.028Z,44.57
2022-11-05T02:47:47.974Z,45.57
2022-11-05T02:49:44.118Z,50.53
2022-11-05T02:51:39.353Z,49.40
2022-11-05T02:53:35.393Z,50.23
2022-11-05T02:55:49.674Z,45.63
2022-11-05T02:57:22.880Z,49.63
2022-11-05T02:58:55.147Z,47.07
2022-11-05T03:00:56.654Z,51.13
2022-11-05T03:02:29.222Z,63.47
2022-11-05T03:04:07.097Z,71.00
2022-11-05T03:06:13.383Z,71.73
2022-11-05T03:07:59.545Z,58.17
2022-11-05T03:10:05.581Z,50.63
2022-11-05T03:11:55.055Z,52.77
2022-11-05T03:14:04.573Z,51.03
2022-11-05T03:15:57.377Z,52.23
2022-11-05T03:17:35.709Z,53.43
2022-11-05T03:19:42.122Z,53.63
2022-11-05T03:21:49.451Z,52.83
2022-11-05T03:23:51.601Z,46.53
2022-11-05T03:25:27.865Z,56.10
2022-11-05T03:27:26.457Z,51.20
2022-11-05T03:29:10.643Z,49.90
2022-11-05T03:30:45.096Z,55.00
2022-11-05T03:32:22.430Z,54.60
2022-11-05T03:33:59.073Z,46.37
2022-11-05T03:35:40.101Z,49.70
2022-11-05T03:37:13.410Z,52.30
2022-11-05T03:38:53.289Z,49.87
2022-11-05T03:40:29.617Z,56.90
2022-11-05T03:42:07.629Z,50.07
2022-11-05T03:43:49.178Z,53.70
2022-11-05T03:45:34.649Z,52.60
2022-11-05T03:47:15.661Z,55.27
2022-11-05T03:48:53.729Z,53.40
2022-11-05T03:50:37.067Z,56.20
2022-11-05T03:52:22.682Z,50.17
2022-11-05T03:54:02.277Z,53.67
2022-11-05T03:55:49.548Z,55.10
2022-11-05T03:57:29.476Z,53.90
2022-11-05T03:59:06.041Z,56.83
2022-11-05T04:00:38.522Z,57.47
2022-11-05T04:02:13.991Z,53.17
2022-11-05T04:03:46.481Z,55.83
2022-11-05T04:05:19.272Z,58.47
2022-11-05T04:07:14.644Z,58.23
2022-11-05T04:09:07.299Z,52.67
2022-11-05T04:11:06.397Z,56.53
2022-11-05T04:12:57.172Z,56.67
2022-11-05T04:14:30.929Z,55.47
2022-11-05T04:16:21.613Z,53.13
2022-11-05T04:17:53.978Z,53.67
2022-11-05T04:19:44.392Z,63.47
2022-11-05T04:21:35.342Z,54.67
2022-11-05T04:23:26.266Z,53.27
2022-11-05T04:24:58.648Z,61.47
2022-11-05T04:26:31.165Z,70.97
2022-11-05T04:28:03.306Z,51.50
2022-11-05T04:29:53.970Z,59.23
2022-11-05T04:31:26.580Z,53.63
2022-11-05T04:33:00.096Z,53.87
2022-11-05T04:34:32.314Z,51.67
2022-11-05T04:36:05.037Z,50.90
2022-11-05T04:37:37.209Z,51.23
2022-11-05T04:39:09.397Z,53.63
2022-11-05T04:40:42.267Z,55.00
2022-11-05T04:42:14.709Z,52.90
2022-11-05T04:43:46.889Z,50.57
2022-11-05T04:45:19.168Z,51.87
2022-11-05T04:46:51.320Z,50.10
2022-11-05T04:48:23.802Z,51.63
2022-11-05T04:49:55.964Z,48.30
2022-11-05T04:51:40.052Z,53.23
2022-11-05T04:53:12.921Z,52.17
2022-11-05T04:54:45.296Z,50.50
2022-11-05T04:56:23.781Z,58.83
2022-11-05T04:57:56.493Z,49.30
2022-11-05T04:59:28.629Z,52.33
2022-11-05T05:01:00.811Z,55.33
2022-11-05T05:02:34.300Z,52.07
2022-11-05T05:04:32.058Z,54.20
2022-11-05T05:06:04.665Z,48.10
2022-11-05T05:07:37.393Z,46.67
2022-11-05T05:09:09.533Z,50.13
2022-11-05T05:10:41.668Z,49.40
2022-11-05T05:12:14.138Z,55.80
2022-11-05T05:13:47.218Z,46.03
2022-11-05T05:15:19.557Z,51.30
2022-11-05T05:16:51.817Z,55.70
2022-11-05T05:18:26.704Z,55.83
2022-11-05T05:20:17.595Z,55.80
2022-11-05T05:21:49.768Z,48.47
2022-11-05T05:23:22.341Z,43.37
2022-11-05T05:24:56.565Z,46.87
2022-11-05T05:26:28.970Z,48.13
2022-11-05T05:28:01.123Z,47.07
2022-11-05T05:29:33.559Z,50.67
2022-11-05T05:31:06.093Z,44.57
2022-11-05T05:32:38.430Z,49.77
2022-11-05T05:34:14.815Z,48.83
2022-11-05T05:35:47.271Z,44.97
2022-11-05T05:37:19.902Z,51.37
2022-11-05T05:38:52.055Z,50.40
2022-11-05T05:40:24.834Z,50.90
2022-11-05T05:41:57.334Z,48.53
2022-11-05T05:43:33.852Z,56.23
2022-11-05T05:45:06.774Z,50.43
2022-11-05T05:46:39.868Z,56.10
2022-11-05T05:48:11.999Z,59.57
2022-11-05T05:49:44.174Z,56.50
2022-11-05T05:51:17.430Z,62.83
2022-11-05T05:52:49.553Z,64.13
2022-11-05T05:54:26.291Z,64.80
2022-11-05T05:56:02.214Z,70.10
2022-11-05T05:57:34.822Z,67.23
2022-11-05T05:59:07.328Z,63.60
2022-11-05T06:00:39.818Z,62.07
2022-11-05T06:02:12.759Z,58.50
2022-11-05T06:03:45.168Z,53.23
2022-11-05T06:05:17.362Z,47.93
2022-11-05T06:06:49.954Z,46.37
2022-11-05T06:08:22.139Z,47.00
2022-11-05T06:09:54.305Z,43.53
2022-11-05T06:11:27.493Z,40.47
2022-11-05T06:13:00.525Z,37.90
2022-11-05T06:14:32.678Z,39.67
2022-11-05T06:16:08.690Z,38.20
2022-11-05T06:17:43.489Z,37.00
2022-11-05T06:19:15.619Z,42.53
2022-11-05T06:20:48.189Z,40.17
2022-11-05T06:22:20.346Z,41.70
2022-11-05T06:23:52.468Z,37.90
2022-11-05T06:25:25.623Z,33.90
2022-11-05T06:26:58.161Z,35.80
2022-11-05T06:28:31.157Z,33.07
2022-11-05T06:30:07.090Z,35.50
2022-11-05T06:31:39.698Z,36.47
2022-11-05T06:33:12.315Z,39.07
2022-11-05T06:34:44.677Z,42.33
2022-11-05T06:36:19.840Z,39.73
2022-11-05T06:37:52.037Z,40.10
2022-11-05T06:39:24.285Z,39.67
2022-11-05T06:40:59.474Z,38.53
2022-11-05T06:42:31.818Z,40.90
2022-11-05T06:44:04.325Z,39.33
2022-11-05T06:45:36.794Z,38.83
2022-11-05T06:47:08.950Z,37.53
2022-11-05T06:48:41.139Z,48.17
2022-11-05T06:50:13.724Z,43.40
2022-11-05T06:51:45.888Z,42.63
2022-11-05T06:53:18.078Z,43.03
2022-11-05T06:54:50.411Z,50.10
2022-11-05T06:56:22.879Z,45.80
2022-11-05T06:57:56.553Z,46.10
2022-11-05T06:59:28.758Z,45.07
2022-11-05T07:01:09.992Z,46.77
2022-11-05T07:02:42.698Z,47.57
2022-11-05T07:04:15.125Z,44.93
2022-11-05T07:05:49.615Z,38.13
2022-11-05T07:07:21.795Z,42.37
2022-11-05T07:08:54.718Z,44.10
2022-11-05T07:10:26.927Z,37.60
2022-11-05T07:11:59.131Z,42.57
2022-11-05T07:13:32.049Z,40.40
2022-11-05T07:15:05.886Z,39.30
2022-11-05T07:16:38.191Z,42.47
2022-11-05T07:18:10.728Z,41.30
2022-11-05T07:19:42.848Z,36.83
2022-11-05T07:21:15.394Z,40.50
2022-11-05T07:22:47.808Z,37.23
2022-11-05T07:24:20.044Z,38.07
2022-11-05T07:25:52.702Z,38.63
2022-11-05T07:27:24.949Z,38.43
2022-11-05T07:28:57.566Z,40.53
2022-11-05T07:30:31.407Z,41.00
2022-11-05T07:32:04.077Z,38.50
2022-11-05T07:33:36.933Z,44.53
2022-11-05T07:35:10.078Z,40.13
2022-11-05T07:36:42.303Z,44.30
2022-11-05T07:38:14.777Z,42.37
2022-11-05T07:39:46.918Z,45.23
2022-11-05T07:41:19.241Z,41.27
2022-11-05T07:42:55.249Z,42.97
2022-11-05T07:44:27.468Z,45.23
2022-11-05T07:45:59.718Z,37.70
2022-11-05T07:47:32.570Z,40.37
2022-11-05T07:49:04.939Z,40.93
2022-11-05T07:50:37.822Z,42.73
2022-11-05T07:52:10.449Z,37.73
2022-11-05T07:53:45.454Z,45.73
2022-11-05T07:55:20.360Z,47.43
2022-11-05T07:56:53.186Z,44.07
2022-11-05T07:58:26.032Z,44.37
2022-11-05T07:59:58.209Z,47.20
2022-11-05T08:01:30.513Z,45.00
2022-11-05T08:03:08.692Z,42.87
2022-11-05T08:04:42.580Z,39.87
2022-11-05T08:06:14.787Z,48.20
2022-11-05T08:07:46.948Z,43.43
2022-11-05T08:09:20.793Z,44.50
2022-11-05T08:10:53.009Z,46.30
2022-11-05T08:12:25.171Z,46.27
2022-11-05T08:13:57.657Z,46.43
2022-11-05T08:15:30.694Z,48.37
2022-11-05T08:17:02.901Z,51.73
2022-11-05T08:18:35.948Z,45.47
2022-11-05T08:20:09.198Z,52.83
2022-11-05T08:21:41.539Z,54.90
2022-11-05T08:23:14.579Z,56.00
2022-11-05T08:24:47.383Z,51.10
2022-11-05T08:26:21.011Z,48.27
2022-11-05T08:28:03.294Z,59.53
2022-11-05T08:29:35.518Z,55.07
2022-11-05T08:31:08.560Z,51.03
2022-11-05T08:32:40.989Z,57.83
2022-11-05T08:34:13.147Z,55.60
2022-11-05T08:35:45.650Z,45.93
2022-11-05T08:37:17.926Z,46.23
2022-11-05T08:38:50.365Z,45.60
2022-11-05T08:40:22.526Z,52.73
2022-11-05T08:41:54.915Z,52.80
2022-11-05T08:43:27.475Z,54.93
2022-11-05T08:44:59.601Z,50.13
2022-11-05T08:46:31.726Z,52.87
2022-11-05T08:48:16.254Z,43.27
2022-11-05T08:49:48.961Z,47.37
2022-11-05T08:51:21.121Z,48.87
2022-11-05T08:52:53.288Z,48.83
2022-11-05T08:54:26.035Z,46.20
2022-11-05T08:55:59.321Z,51.03
2022-11-05T08:57:31.709Z,47.27
2022-11-05T08:59:04.105Z,50.50
2022-11-05T09:00:37.704Z,59.67
2022-11-05T09:02:13.804Z,56.73
2022-11-05T09:03:46.089Z,54.33
2022-11-05T09:05:18.682Z,62.40
2022-11-05T09:06:51.045Z,55.77
2022-11-05T09:08:23.186Z,46.43
2022-11-05T09:09:55.418Z,47.97
2022-11-05T09:11:43.308Z,54.73
2022-11-05T09:13:20.591Z,49.00
2022-11-05T09:14:53.014Z,44.23
2022-11-05T09:16:26.890Z,44.47
2022-11-05T09:17:59.681Z,43.93
2022-11-05T09:19:33.123Z,46.97
2022-11-05T09:21:32.458Z,52.80
2022-11-05T09:23:04.618Z,52.27
2022-11-05T09:24:36.735Z,43.67
2022-11-05T09:26:11.613Z,43.03
2022-11-05T09:27:44.341Z,43.63
2022-11-05T09:29:16.535Z,44.10
2022-11-05T09:30:53.446Z,48.30
2022-11-05T09:32:25.747Z,42.77
2022-11-05T09:33:57.958Z,44.47
2022-11-05T09:35:30.389Z,46.63
2022-11-05T09:37:04.423Z,44.87
2022-11-05T09:38:36.953Z,46.27
2022-11-05T09:40:17.888Z,48.10
2022-11-05T09:41:53.039Z,46.60
2022-11-05T09:43:38.986Z,44.13
2022-11-05T09:45:22.228Z,42.83
2022-11-05T09:47:02.943Z,41.97
2022-11-05T09:48:38.197Z,47.67
2022-11-05T09:50:45.349Z,44.90
2022-11-05T09:52:35.750Z,48.37
2022-11-05T09:54:11.906Z,51.37
2022-11-05T09:55:49.840Z,46.70
2022-11-05T09:58:01.621Z,50.40
2022-11-05T09:59:47.290Z,47.37
2022-11-05T10:01:26.321Z,48.10
2022-11-05T10:03:07.578Z,50.37
2022-11-05T10:04:43.154Z,55.33
2022-11-05T10:06:23.405Z,51.53
2022-11-05T10:08:07.429Z,57.37
2022-11-05T10:09:47.834Z,65.40
2022-11-05T10:11:53.909Z,102.40
2022-11-05T10:13:46.731Z,60.20
2022-11-05T10:15:42.937Z,49.37
2022-11-05T10:17:27.435Z,51.40
2022-11-05T10:19:27.233Z,46.80
2022-11-05T10:20:59.888Z,47.73
2022-11-05T10:22:33.401Z,47.10
2022-11-05T10:24:19.147Z,47.67
2022-11-05T10:26:01.377Z,43.47
2022-11-05T10:27:37.608Z,44.50
2022-11-05T10:29:19.359Z,44.87
2022-11-05T10:30:59.148Z,50.03
2022-11-05T10:32:39.596Z,49.47
2022-11-05T10:34:13.760Z,49.47
2022-11-05T10:35:54.501Z,49.83
2022-11-05T10:37:28.843Z,46.33
2022-11-05T10:39:13.740Z,48.93
2022-11-05T10:41:23.259Z,62.17
2022-11-05T10:43:21.753Z,63.17
2022-11-05T10:45:07.321Z,49.60
2022-11-05T10:46:47.508Z,46.53
2022-11-05T10:49:01.483Z,48.80
2022-11-05T10:50:34.417Z,43.90
2022-11-05T10:52:31.270Z,38.00
2022-11-05T10:54:21.820Z,42.63
2022-11-05T10:55:54.638Z,40.27
2022-11-05T10:57:40.857Z,41.47
2022-11-05T10:59:29.786Z,42.93
2022-11-05T11:01:08.214Z,40.53
2022-11-05T11:02:51.965Z,43.47
2022-11-05T11:04:32.259Z,44.10
2022-11-05T11:06:24.530Z,45.23
2022-11-05T11:08:18.939Z,45.07
2022-11-05T11:09:52.835Z,46.13
2022-11-05T11:11:44.558Z,43.00
2022-11-05T11:13:22.543Z,41.87
2022-11-05T11:15:08.303Z,48.10
2022-11-05T11:16:51.278Z,46.43
2022-11-05T11:18:40.211Z,40.07
2022-11-05T11:20:33.154Z,39.70
2022-11-05T11:22:05.316Z,39.20
2022-11-05T11:23:41.139Z,38.13
2022-11-05T11:25:26.161Z,40.33
2022-11-05T11:27:31.531Z,36.67
2022-11-05T11:29:28.874Z,37.67
2022-11-05T11:31:21.626Z,45.00
2022-11-05T11:33:08.113Z,42.57
2022-11-05T11:34:42.070Z,44.03
2022-11-05T11:36:25.774Z,41.57
2022-11-05T11:38:00.957Z,48.97
2022-11-05T11:39:34.473Z,46.40
2022-11-05T11:41:35.693Z,48.57
2022-11-05T11:43:28.150Z,58.87
2022-11-05T11:45:19.106Z,37.80
2022-11-05T11:46:57.274Z,49.43
2022-11-05T11:48:31.658Z,41.37
2022-11-05T11:50:04.138Z,41.93
2022-11-05T11:51:49.871Z,41.43
2022-11-05T11:53:26.425Z,40.07
2022-11-05T11:55:13.688Z,48.73
2022-11-05T11:56:48.427Z,44.13
2022-11-05T12:00:13.320Z,42.23
2022-11-05T12:02:37.282Z,36.83
2022-11-05T12:04:26.108Z,37.20
2022-11-05T12:06:26.745Z,39.40
2022-11-05T12:08:20.066Z,39.97
2022-11-05T12:10:21.405Z,35.73
2022-11-05T12:12:15.278Z,37.37
2022-11-05T12:14:49.847Z,36.67
2022-11-05T12:16:52.081Z,37.47
2022-11-05T12:19:13.961Z,38.80
2022-11-05T12:21:14.270Z,44.90
2022-11-05T12:23:27.238Z,41.30
2022-11-05T12:26:20.651Z,39.17
2022-11-05T12:28:11.127Z,41.20
2022-11-05T12:29:57.844Z,41.67
2022-11-05T12:32:09.453Z,48.40
2022-11-05T12:33:47.178Z,52.13
2022-11-05T12:35:28.585Z,40.63
2022-11-05T12:37:59.823Z,46.63
2022-11-05T12:39:54.130Z,53.30
2022-11-05T12:41:35.084Z,43.30
2022-11-05T12:43:47.133Z,46.03
2022-11-05T12:45:50.406Z,56.07
2022-11-05T12:48:27.635Z,49.87
2022-11-05T12:50:28.534Z,69.17
2022-11-05T12:52:30.288Z,50.40
2022-11-05T12:54:26.917Z,51.30
2022-11-05T12:56:04.679Z,46.03
2022-11-05T12:57:41.964Z,48.20
2022-11-05T12:59:41.298Z,47.23
2022-11-05T13:01:36.962Z,51.17
2022-11-05T13:03:35.088Z,49.40
2022-11-05T13:05:08.105Z,51.77
2022-11-05T13:06:47.043Z,56.17
2022-11-05T13:08:31.302Z,53.80
2022-11-05T13:10:22.327Z,49.77
2022-11-05T13:12:05.096Z,47.83
2022-11-05T13:13:42.434Z,51.13
2022-11-05T13:15:38.938Z,49.07
2022-11-05T13:17:24.970Z,43.67
2022-11-05T13:19:13.347Z,46.70
2022-11-05T13:20:51.164Z,44.93
2022-11-05T13:22:30.270Z,57.33
2022-11-05T13:24:24.576Z,53.13
2022-11-05T13:26:24.660Z,56.97
2022-11-05T13:28:13.106Z,62.10
2022-11-05T13:29:56.966Z,59.00
2022-11-05T13:31:47.139Z,61.97
2022-11-05T13:33:38.267Z,68.37
2022-11-05T13:36:14.913Z,83.53
2022-11-05T13:38:14.289Z,61.77
2022-11-05T13:39:55.026Z,89.57
2022-11-05T13:42:33.799Z,67.47
2022-11-05T13:44:24.538Z,87.37
2022-11-05T13:46:50.086Z,70.73
2022-11-05T13:49:12.010Z,63.90
2022-11-05T13:51:27.198Z,50.50
2022-11-05T13:53:56.825Z,48.87
2022-11-05T13:55:56.778Z,58.37
2022-11-05T13:58:00.710Z,58.70
2022-11-05T14:00:00.754Z,61.77
2022-11-05T14:01:49.746Z,68.43
2022-11-05T14:03:23.190Z,81.43
2022-11-05T14:05:01.736Z,62.97
2022-11-05T14:06:37.226Z,63.77
2022-11-05T14:08:23.693Z,71.17
2022-11-05T14:10:19.166Z,61.80
2022-11-05T14:11:58.234Z,71.50
2022-11-05T14:13:40.108Z,71.50
2022-11-05T14:15:31.750Z,60.87
2022-11-05T14:17:09.979Z,60.37
2022-11-05T14:18:45.154Z,57.80
2022-11-05T14:20:43.810Z,59.03
2022-11-05T14:22:31.551Z,61.90
2022-11-05T14:24:22.042Z,79.03
2022-11-05T14:26:13.185Z,78.83
2022-11-05T14:27:49.572Z,68.00
2022-11-05T14:29:24.408Z,54.77
2022-11-05T14:30:56.657Z,59.87
2022-11-05T14:32:48.757Z,64.33
2022-11-05T14:34:58.748Z,59.20
2022-11-05T14:36:34.807Z,63.90
2022-11-05T14:38:28.266Z,82.83
2022-11-05T14:40:36.445Z,74.97
2022-11-05T14:42:29.761Z,71.00
2022-11-05T14:44:08.054Z,90.47
2022-11-05T14:45:58.816Z,57.03
2022-11-05T14:47:43.153Z,67.70
2022-11-05T14:49:28.399Z,89.67
2022-11-05T14:51:02.106Z,73.77
2022-11-05T14:52:35.066Z,63.07
2022-11-05T14:54:34.612Z,99.33
2022-11-05T14:56:16.782Z,77.70
2022-11-05T14:57:55.296Z,76.77
2022-11-05T14:59:36.263Z,88.17
2022-11-05T15:01:14.657Z,63.23
2022-11-05T15:03:16.358Z,67.77
2022-11-05T15:04:50.839Z,89.10
2022-11-05T15:06:35.322Z,64.27
2022-11-05T15:08:29.206Z,52.87
2022-11-05T15:10:10.981Z,58.70
2022-11-05T15:11:54.753Z,106.23
2022-11-05T15:13:42.913Z,75.57
2022-11-05T15:15:30.699Z,79.47
2022-11-05T15:17:19.094Z,64.17
2022-11-05T15:18:54.405Z,89.47
2022-11-05T15:20:46.167Z,56.23
2022-11-05T15:22:34.890Z,61.87
2022-11-05T15:24:10.576Z,63.53
2022-11-05T15:26:39.474Z,58.37
2022-11-05T15:28:51.613Z,64.03
2022-11-05T15:30:25.573Z,70.23
2022-11-05T15:31:59.991Z,80.07
2022-11-05T15:33:33.273Z,73.70
2022-11-05T15:35:19.250Z,70.13
2022-11-05T15:37:03.715Z,67.10
2022-11-05T15:38:36.631Z,60.53
2022-11-05T15:40:32.011Z,59.07
2022-11-05T15:42:18.947Z,58.03
2022-11-05T15:43:51.687Z,59.00
2022-11-05T15:45:23.869Z,61.40
2022-11-05T15:47:29.083Z,54.97
2022-11-05T15:49:09.809Z,62.73
2022-11-05T15:50:42.460Z,57.87
2022-11-05T15:52:18.673Z,56.90
2022-11-05T15:55:56.690Z,57.93
2022-11-05T15:57:30.007Z,61.27
2022-11-05T15:59:15.973Z,51.57
2022-11-05T16:00:49.823Z,57.20
2022-11-05T16:02:28.825Z,57.90
2022-11-05T16:04:19.704Z,58.47
2022-11-05T16:05:53.803Z,58.90
2022-11-05T16:07:27.985Z,67.47
2022-11-05T16:09:00.371Z,69.03
2022-11-05T16:10:38.130Z,66.47
2022-11-05T16:12:24.073Z,63.47
2022-11-05T16:14:19.141Z,58.40
2022-11-05T16:16:01.618Z,65.10
2022-11-05T16:17:59.185Z,59.37
2022-11-05T16:19:41.934Z,64.87
2022-11-05T16:21:22.608Z,61.83
2022-11-05T16:23:23.787Z,62.13
2022-11-05T16:24:56.020Z,65.73
2022-11-05T16:28:30.671Z,73.47
2022-11-05T16:30:03.033Z,67.53
2022-11-05T16:31:35.732Z,69.73
2022-11-05T16:33:08.306Z,72.63
2022-11-05T16:34:51.222Z,74.97
2022-11-05T16:36:25.803Z,71.70
2022-11-05T16:38:02.968Z,69.47
2022-11-05T16:39:35.444Z,73.57
2022-11-05T16:41:16.722Z,81.50
2022-11-05T16:42:52.095Z,74.87
2022-11-05T16:44:24.442Z,69.93
2022-11-05T16:46:01.392Z,76.53
2022-11-05T16:47:33.928Z,78.60
2022-11-05T16:49:06.267Z,74.73
2022-11-05T16:50:39.007Z,72.53
2022-11-05T16:52:13.283Z,83.60
2022-11-05T16:53:48.991Z,89.53
2022-11-05T16:55:23.815Z,77.03
2022-11-05T16:56:56.014Z,67.30
2022-11-05T16:58:30.185Z,67.93
2022-11-05T17:00:02.438Z,74.37
2022-11-05T17:01:37.172Z,83.50
2022-11-05T17:03:09.831Z,87.60
2022-11-05T17:04:42.082Z,73.83
2022-11-05T17:06:16.572Z,74.70
2022-11-05T17:07:48.948Z,64.43
2022-11-05T17:09:21.505Z,68.50
2022-11-05T17:10:53.670Z,66.17
2022-11-05T17:12:25.832Z,62.63
2022-11-05T17:13:58.424Z,61.03
2022-11-05T17:15:35.714Z,68.30
2022-11-05T17:17:08.118Z,64.27
2022-11-05T17:18:41.732Z,68.70
2022-11-05T17:20:46.431Z,64.73
2022-11-05T17:22:18.853Z,77.13
2022-11-05T17:23:51.177Z,68.27
2022-11-05T17:25:25.201Z,73.30
2022-11-05T17:26:57.485Z,67.60
2022-11-05T17:28:30.735Z,75.93
2022-11-05T17:30:03.866Z,67.53
2022-11-05T17:31:36.414Z,70.17
2022-11-05T17:33:11.279Z,63.03
2022-11-05T17:34:44.162Z,70.07
2022-11-05T17:36:16.662Z,87.60
2022-11-05T17:37:49.001Z,68.87
2022-11-05T17:39:21.280Z,72.07
2022-11-05T17:40:53.796Z,71.53
2022-11-05T17:42:26.779Z,74.80
2022-11-05T17:43:59.149Z,74.67
2022-11-05T17:45:31.565Z,70.60
2022-11-05T17:47:03.763Z,76.03
2022-11-05T17:48:37.948Z,72.23
2022-11-05T17:50:15.309Z,70.23
2022-11-05T17:51:47.595Z,70.80
2022-11-05T17:53:20.484Z,67.03
2022-11-05T17:54:53.827Z,65.73
2022-11-05T17:56:33.791Z,63.63
2022-11-05T17:58:08.171Z,58.40
2022-11-05T17:59:42.220Z,61.43
2022-11-05T18:01:31.498Z,58.27
2022-11-05T18:03:04.877Z,61.37
2022-11-05T18:04:37.713Z,61.87
2022-11-05T18:06:10.201Z,55.17
2022-11-05T18:07:42.953Z,53.77
2022-11-05T18:09:15.614Z,55.40
2022-11-05T18:10:47.920Z,54.30
2022-11-05T18:12:20.150Z,51.20
2022-11-05T18:13:54.101Z,48.83
2022-11-05T18:15:26.441Z,49.87
2022-11-05T18:17:00.368Z,43.97
2022-11-05T18:18:32.844Z,48.43
2022-11-05T18:20:11.596Z,53.90
2022-11-05T18:21:45.298Z,45.87
2022-11-05T18:23:17.583Z,48.43
2022-11-05T18:24:50.406Z,47.90
2022-11-05T18:26:22.898Z,46.83
2022-11-05T18:27:55.090Z,43.87
2022-11-05T18:29:27.319Z,50.77
2022-11-05T18:30:59.801Z,45.10
2022-11-05T18:32:32.482Z,48.93
2022-11-05T18:34:04.701Z,49.43
2022-11-05T18:35:43.206Z,48.93
2022-11-05T18:37:15.734Z,48.47
2022-11-05T18:38:48.643Z,45.73
2022-11-05T18:40:21.006Z,52.97
2022-11-05T18:41:55.786Z,45.63
2022-11-05T18:43:27.965Z,53.27
2022-11-05T18:45:00.349Z,49.83
2022-11-05T18:46:57.225Z,50.67
2022-11-05T18:48:26.569Z,52.70
2022-11-05T18:49:59.832Z,62.60
2022-11-05T18:51:31.999Z,55.83
2022-11-05T18:53:04.244Z,49.80
2022-11-05T18:54:36.889Z,47.67
2022-11-05T18:56:17.130Z,46.53
2022-11-05T18:57:53.935Z,49.77
2022-11-05T18:59:37.571Z,44.60
2022-11-05T19:01:29.820Z,48.70
2022-11-05T19:03:02.497Z,56.03
2022-11-05T19:04:38.842Z,53.30
2022-11-05T19:06:11.780Z,52.00
2022-11-05T19:07:44.006Z,52.63
2022-11-05T19:09:16.345Z,49.47
2022-11-05T19:10:51.447Z,51.93
2022-11-05T19:12:23.721Z,52.10
2022-11-05T19:13:55.902Z,48.47
2022-11-05T19:15:28.112Z,49.33
2022-11-05T19:17:02.779Z,50.47
2022-11-05T19:18:36.103Z,53.00
2022-11-05T19:20:09.315Z,52.63
2022-11-05T19:21:41.709Z,51.03
2022-11-05T19:23:14.175Z,47.50
2022-11-05T19:24:46.395Z,55.17
2022-11-05T19:26:28.424Z,56.00
2022-11-05T19:28:03.381Z,51.17
2022-11-05T19:29:35.597Z,49.97
2022-11-05T19:31:10.895Z,48.10
2022-11-05T19:32:43.129Z,46.07
2022-11-05T19:34:15.817Z,52.80
2022-11-05T19:35:48.030Z,51.93
2022-11-05T19:37:20.208Z,56.80
2022-11-05T19:39:01.990Z,46.73
2022-11-05T19:40:37.333Z,52.00
2022-11-05T19:42:09.495Z,48.30
2022-11-05T19:43:42.714Z,46.83
2022-11-05T19:45:42.813Z,57.40
2022-11-05T19:47:07.648Z,54.30
2022-11-05T19:48:40.488Z,61.07
2022-11-05T19:50:12.945Z,53.37
2022-11-05T19:51:45.581Z,50.80
2022-11-05T19:53:17.832Z,54.23
2022-11-05T19:54:50.036Z,68.03
2022-11-05T19:56:27.139Z,58.03
2022-11-05T19:57:59.395Z,54.47
2022-11-05T19:59:31.690Z,55.20
2022-11-05T20:01:04.541Z,56.33
2022-11-05T20:02:37.122Z,53.87
2022-11-05T20:04:12.033Z,49.60
2022-11-05T20:05:44.342Z,48.27
2022-11-05T20:07:16.874Z,54.23
2022-11-05T20:10:42.455Z,52.87
2022-11-05T20:12:14.995Z,50.57
2022-11-05T20:13:47.391Z,54.43
2022-11-05T20:15:19.893Z,60.27
2022-11-05T20:16:53.366Z,39.93
2022-11-05T20:18:26.529Z,55.47
2022-11-05T20:19:58.738Z,44.37
2022-11-05T20:21:31.410Z,52.90
2022-11-05T20:23:03.611Z,48.30
2022-11-05T20:24:36.204Z,42.27
2022-11-05T20:26:10.513Z,48.27
2022-11-05T20:27:42.818Z,48.67
2022-11-05T20:29:15.045Z,45.10
2022-11-05T20:30:47.576Z,51.43
2022-11-05T20:32:19.741Z,42.17
2022-11-05T20:33:53.707Z,44.47
2022-11-05T20:35:26.303Z,42.13
2022-11-05T20:36:58.621Z,51.93
2022-11-05T20:38:31.713Z,45.07
2022-11-05T20:40:04.494Z,47.33
2022-11-05T20:41:36.948Z,51.97
2022-11-05T20:43:09.142Z,49.03
2022-11-05T20:44:41.572Z,44.97
2022-11-05T20:46:19.281Z,51.07
2022-11-05T20:47:51.437Z,52.07
2022-11-05T20:49:25.660Z,54.33
2022-11-05T20:50:59.275Z,54.67
2022-11-05T20:52:31.578Z,51.83
2022-11-05T20:54:04.265Z,49.40
2022-11-05T20:55:45.705Z,49.57
2022-11-05T20:57:17.983Z,49.37
2022-11-05T20:58:51.286Z,50.70
2022-11-05T21:00:24.073Z,65.93
2022-11-05T21:01:56.359Z,60.83
2022-11-05T21:03:28.693Z,59.40
2022-11-05T21:05:02.173Z,52.77
2022-11-05T21:06:35.852Z,53.40
2022-11-05T21:08:08.165Z,54.10
2022-11-05T21:09:40.299Z,56.80
2022-11-05T21:11:12.821Z,59.23
2022-11-05T21:12:45.007Z,53.40
2022-11-05T21:14:17.639Z,56.17
2022-11-05T21:15:56.516Z,59.27
2022-11-05T21:17:29.034Z,56.60
2022-11-05T21:19:01.166Z,57.63
2022-11-05T21:20:33.350Z,67.50
2022-11-05T21:22:07.151Z,49.60
2022-11-05T21:23:39.919Z,53.80
2022-11-05T21:25:12.227Z,54.63
2022-11-05T21:26:44.502Z,57.60
2022-11-05T21:28:16.974Z,51.63
2022-11-05T21:29:49.518Z,49.90
2022-11-05T21:31:21.681Z,49.47
2022-11-05T21:32:53.831Z,51.00
2022-11-05T21:34:26.156Z,56.73
2022-11-05T21:35:59.055Z,49.10
2022-11-05T21:37:32.188Z,49.77
2022-11-05T21:39:09.024Z,55.37
2022-11-05T21:40:46.505Z,54.03